Time;durP1;ratioP1;P1;durP2;ratioP2;P2;SDS_P1;SDS_P2;PMS_P1;PMS_P2;Temp;Humidity;BMP_temperature;BMP_pressure;BME280_temperature;BME280_humidity;BME280_pressure;Samples;Min_cycle;Max_cycle;Signal;HPM_P1;HPM_P2
2021/07/29 00:01:41;;;;;;;;;;;;;;;18.45;72.51;101162.08;1935484;74;20117;-62
2021/07/29 00:04:09;;;;;;;;;;;;;;;18.39;72.75;101161.15;1935371;74;20118;-63
2021/07/29 00:06:37;;;;;;;;;;;;;;;18.38;74.28;101157.25;1935417;74;20110;-63
2021/07/29 00:09:05;;;;;;;;;;;;;;;18.34;75.20;101157.92;1935255;74;20148;-63
2021/07/29 00:11:32;;;;;;;;;;;;;;;18.33;75.17;101160.20;1935524;74;20114;-63
2021/07/29 00:14:01;;;;;;;;;;;;;;;18.29;76.81;101160.02;1935414;74;20187;-63
2021/07/29 00:16:32;;;;;;;;;;;;;;;18.27;76.75;101160.61;1935399;74;20368;-63
2021/07/29 00:19:08;;;;;;;;;;;;;;;18.27;75.63;101164.12;1935271;74;20118;-63
2021/07/29 00:21:32;;;;;;;;;;;;;;;18.27;74.79;101157.94;1933354;74;20114;-63
2021/07/29 00:24:00;;;;;;;;;;;;;;;18.24;74.30;101157.67;1935430;74;20229;-62
2021/07/29 00:26:28;;;;;;;;;;;;;;;18.22;74.49;101154.70;1935332;74;20137;-63
2021/07/29 00:28:56;;;;;;;;;;;;;;;18.16;75.56;101151.97;1935555;74;20203;-63
2021/07/29 00:31:28;;;;;;;;;;;;;;;18.07;76.56;101150.73;1935464;74;20114;-63
2021/07/29 00:33:56;;;;;;;;;;;;;;;18.04;76.38;101149.63;1934302;74;20152;-63
2021/07/29 00:36:24;;;;;;;;;;;;;;;18.03;76.14;101153.23;1935440;74;20110;-63
2021/07/29 00:38:52;;;;;;;;;;;;;;;18.02;75.49;101146.20;1935391;74;20145;-63
2021/07/29 00:41:20;;;;;;;;;;;;;;;17.99;75.16;101145.05;1935428;74;20191;-62
2021/07/29 00:43:48;;;;;;;;;;;;;;;17.95;76.20;101147.55;1935342;74;20148;-62
2021/07/29 00:46:16;;;;;;;;;;;;;;;17.92;76.46;101145.06;1935354;74;20106;-63
2021/07/29 00:48:44;;;;;;;;;;;;;;;17.86;76.92;101148.13;1935283;74;20188;-63
2021/07/29 00:51:11;;;;;;;;;;;;;;;17.80;77.57;101141.35;1935399;74;20114;-62
2021/07/29 00:53:40;;;;;;;;;;;;;;;17.78;77.84;101141.05;1935355;74;20118;-63
2021/07/29 00:56:08;;;;;;;;;;;;;;;17.75;77.48;101144.77;1935458;74;20102;-63
2021/07/29 00:58:36;;;;;;;;;;;;;;;17.71;77.64;101148.59;1935409;74;20118;-63
2021/07/29 01:01:04;;;;;;;;;;;;;;;17.67;77.45;101149.70;1935319;74;20114;-63
2021/07/29 01:03:31;;;;;;;;;;;;;;;17.63;77.56;101149.52;1935384;74;20146;-62
2021/07/29 01:05:59;;;;;;;;;;;;;;;17.58;79.12;101144.50;1935391;74;20110;-62
2021/07/29 01:08:27;;;;;;;;;;;;;;;17.51;79.33;101138.69;1935380;74;20118;-62
2021/07/29 01:10:55;;;;;;;;;;;;;;;17.53;78.84;101134.60;1930393;74;20102;-62
2021/07/29 01:13:23;;;;;;;;;;;;;;;17.54;79.46;101140.33;1925608;74;20114;-62
2021/07/29 01:15:50;;;;;;;;;;;;;;;17.54;79.90;101136.33;1925638;74;20243;-63
2021/07/29 01:18:18;;;;;;;;;;;;;;;17.53;79.44;101138.59;1925701;74;20145;-62
2021/07/29 01:20:46;;;;;;;;;;;;;;;17.52;78.84;101139.53;1925722;74;20111;-62
2021/07/29 01:23:14;;;;;;;;;;;;;;;17.51;78.90;101129.85;1925704;74;20118;-62
2021/07/29 01:25:42;;;;;;;;;;;;;;;17.52;79.08;101131.55;1925687;74;20114;-62
2021/07/29 01:28:10;;;;;;;;;;;;;;;17.50;79.47;101132.12;1925630;74;20173;-63
2021/07/29 01:30:38;;;;;;;;;;;;;;;17.47;79.13;101128.34;1925666;74;20153;-63
2021/07/29 01:33:06;;;;;;;;;;;;;;;17.48;79.38;101127.38;1925706;74;20118;-62
2021/07/29 01:35:34;;;;;;;;;;;;;;;17.47;79.82;101123.02;1925676;74;20118;-63
2021/07/29 01:38:02;;;;;;;;;;;;;;;17.45;79.77;101118.27;1925686;74;20118;-63
2021/07/29 01:40:30;;;;;;;;;;;;;;;17.40;80.17;101124.34;1925663;74;20149;-62
2021/07/29 01:42:58;;;;;;;;;;;;;;;17.32;80.32;101125.66;1925601;74;20118;-63
2021/07/29 01:45:25;;;;;;;;;;;;;;;17.27;80.57;101130.89;1925648;74;20102;-63
2021/07/29 01:47:53;;;;;;;;;;;;;;;17.23;80.68;101128.89;1925645;74;20523;-63
2021/07/29 01:50:21;;;;;;;;;;;;;;;17.23;80.79;101126.22;1925644;74;20208;-63
2021/07/29 01:52:49;;;;;;;;;;;;;;;17.22;81.07;101131.16;1925706;74;20145;-63
2021/07/29 01:55:16;;;;;;;;;;;;;;;17.20;81.80;101131.72;1925626;74;20119;-63
2021/07/29 01:57:44;;;;;;;;;;;;;;;17.20;81.18;101135.72;1925643;74;20114;-63
2021/07/29 02:00:13;;;;;;;;;;;;;;;17.19;81.48;101138.02;1925657;74;20150;-63
2021/07/29 02:02:40;;;;;;;;;;;;;;;17.17;81.63;101133.23;1925622;74;20156;-63
2021/07/29 02:05:08;;;;;;;;;;;;;;;17.18;81.66;101141.61;1925649;74;20115;-63
2021/07/29 02:07:36;;;;;;;;;;;;;;;17.17;82.08;101133.23;1925604;74;20208;-63
2021/07/29 02:10:05;;;;;;;;;;;;;;;17.16;81.82;101138.19;1925632;74;20102;-63
2021/07/29 02:12:33;;;;;;;;;;;;;;;17.11;81.97;101133.61;1925593;74;20106;-63
2021/07/29 02:15:01;;;;;;;;;;;;;;;17.07;81.80;101138.25;1925651;74;20157;-63
2021/07/29 02:17:29;;;;;;;;;;;;;;;17.11;81.80;101133.61;1925653;74;20160;-63
2021/07/29 02:19:57;;;;;;;;;;;;;;;17.15;81.48;101134.68;1925642;74;20114;-63
2021/07/29 02:22:25;;;;;;;;;;;;;;;17.23;81.69;101133.36;1925554;74;20144;-63
2021/07/29 02:24:52;;;;;;;;;;;;;;;17.28;81.59;101136.58;1925521;74;20106;-63
2021/07/29 02:27:23;;;;;;;;;;;;;;;17.31;81.79;101139.91;1925756;74;20114;-62
2021/07/29 02:29:50;;;;;;;;;;;;;;;17.32;82.05;101138.97;1925589;74;20114;-62
2021/07/29 02:32:17;;;;;;;;;;;;;;;17.35;81.63;101137.46;1925762;74;20139;-62
2021/07/29 02:34:45;;;;;;;;;;;;;;;17.39;81.43;101132.78;1925834;74;20144;-62
2021/07/29 02:37:13;;;;;;;;;;;;;;;17.41;81.40;101136.68;1925720;74;20126;-63
2021/07/29 02:39:41;;;;;;;;;;;;;;;17.42;81.25;101133.08;1925732;74;20153;-62
2021/07/29 02:42:09;;;;;;;;;;;;;;;17.44;81.09;101130.70;1925752;74;20600;-63
2021/07/29 02:44:37;;;;;;;;;;;;;;;17.50;80.78;101133.45;1925729;74;20118;-63
2021/07/29 02:47:04;;;;;;;;;;;;;;;17.57;80.68;101142.77;1925707;74;20102;-63
2021/07/29 02:49:32;;;;;;;;;;;;;;;17.55;80.64;101142.02;1925680;74;20141;-63
2021/07/29 02:52:01;;;;;;;;;;;;;;;17.58;80.41;101141.84;1925746;74;20110;-62
2021/07/29 02:54:29;;;;;;;;;;;;;;;17.70;80.22;101143.72;1925784;74;20145;-63
2021/07/29 02:56:56;;;;;;;;;;;;;;;17.83;80.02;101132.30;1925821;74;20110;-62
2021/07/29 02:59:25;;;;;;;;;;;;;;;17.95;79.86;101139.55;1925759;74;20114;-62
2021/07/29 03:01:53;;;;;;;;;;;;;;;18.04;79.81;101138.97;1925718;74;20138;-62
2021/07/29 03:04:24;;;;;;;;;;;;;;;18.26;79.33;101145.55;1925717;74;20200;-62
2021/07/29 03:06:54;;;;;;;;;;;;;;;18.40;79.00;101145.52;1925735;74;20141;-62
2021/07/29 03:09:22;;;;;;;;;;;;;;;18.52;78.58;101144.72;1925891;74;20122;-62
2021/07/29 03:11:50;;;;;;;;;;;;;;;18.64;78.29;101144.37;1929453;74;20118;-62
2021/07/29 03:14:19;;;;;;;;;;;;;;;18.78;77.93;101146.13;1935443;74;20106;-62
2021/07/29 03:16:48;;;;;;;;;;;;;;;18.87;77.51;101138.87;1935477;74;20396;-62
2021/07/29 03:19:15;;;;;;;;;;;;;;;18.92;77.50;101145.70;1935474;74;20117;-62
2021/07/29 03:21:43;;;;;;;;;;;;;;;18.94;77.53;101147.78;1935442;74;20114;-62
2021/07/29 03:24:11;;;;;;;;;;;;;;;18.99;77.52;101146.52;1935437;74;20149;-62
2021/07/29 03:26:39;;;;;;;;;;;;;;;19.06;77.47;101137.62;1935403;74;20114;-62
2021/07/29 03:29:06;;;;;;;;;;;;;;;19.16;77.47;101143.17;1935356;74;20105;-64
2021/07/29 03:31:34;;;;;;;;;;;;;;;19.26;77.49;101146.92;1935397;74;20114;-62
2021/07/29 03:34:02;;;;;;;;;;;;;;;19.33;77.31;101140.66;1935442;74;20169;-62
2021/07/29 03:36:30;;;;;;;;;;;;;;;19.44;77.28;101150.11;1935397;74;20110;-62
2021/07/29 03:38:58;;;;;;;;;;;;;;;19.58;77.17;101150.00;1935514;74;20114;-62
2021/07/29 03:41:26;;;;;;;;;;;;;;;19.73;76.98;101141.91;1935379;74;20126;-62
2021/07/29 03:43:54;;;;;;;;;;;;;;;19.87;76.65;101148.45;1935356;74;20117;-62
2021/07/29 03:46:22;;;;;;;;;;;;;;;19.96;76.06;101145.13;1935338;74;20157;-62
2021/07/29 03:48:49;;;;;;;;;;;;;;;20.09;75.82;101149.59;1935462;74;20117;-62
2021/07/29 03:51:17;;;;;;;;;;;;;;;20.27;75.77;101152.26;1935531;74;20141;-62
2021/07/29 03:53:45;;;;;;;;;;;;;;;20.43;75.55;101151.95;1935404;74;20114;-62
2021/07/29 03:56:13;;;;;;;;;;;;;;;20.57;74.78;101153.13;1935350;74;20117;-64
2021/07/29 03:58:41;;;;;;;;;;;;;;;20.69;74.28;101155.39;1935455;74;20153;-62
2021/07/29 04:01:10;;;;;;;;;;;;;;;20.79;73.62;101159.09;1935424;74;20112;-62
2021/07/29 04:03:38;;;;;;;;;;;;;;;20.89;73.22;101153.04;1935550;74;20403;-62
2021/07/29 04:06:06;;;;;;;;;;;;;;;21.04;72.98;101151.86;1935437;74;20114;-62
2021/07/29 04:08:36;;;;;;;;;;;;;;;21.24;72.65;101159.70;1935414;74;20118;-62
2021/07/29 04:11:05;;;;;;;;;;;;;;;21.45;72.18;101161.23;1935472;74;20228;-62
2021/07/29 04:13:33;;;;;;;;;;;;;;;21.72;71.89;101164.04;1927431;74;20152;-63
2021/07/29 04:16:02;;;;;;;;;;;;;;;21.95;71.04;101165.73;1925741;74;20149;-63
2021/07/29 04:18:36;;;;;;;;;;;;;;;22.18;70.54;101169.72;1924854;74;20169;-62
2021/07/29 04:21:00;;;;;;;;;;;;;;;22.31;69.17;101169.11;1923903;74;20118;-62
2021/07/29 04:23:28;;;;;;;;;;;;;;;22.49;68.81;101172.12;1925641;74;20141;-61
2021/07/29 04:25:55;;;;;;;;;;;;;;;22.71;68.50;101169.00;1925745;74;20102;-62
2021/07/29 04:28:23;;;;;;;;;;;;;;;22.99;68.05;101172.04;1925664;74;20106;-62
2021/07/29 04:30:51;;;;;;;;;;;;;;;23.20;67.54;101168.03;1925739;74;20126;-62
2021/07/29 04:33:19;;;;;;;;;;;;;;;23.48;67.51;101168.70;1925845;74;20110;-62
2021/07/29 04:35:47;;;;;;;;;;;;;;;23.77;67.14;101157.22;1925542;74;20118;-63
2021/07/29 04:38:14;;;;;;;;;;;;;;;24.10;66.72;101160.61;1925688;74;20102;-61
2021/07/29 04:40:42;;;;;;;;;;;;;;;24.40;66.31;101166.89;1925724;74;20173;-61
2021/07/29 04:43:10;;;;;;;;;;;;;;;24.68;65.99;101169.31;1925727;74;20114;-61
2021/07/29 04:45:38;;;;;;;;;;;;;;;24.95;65.29;101168.56;1925733;74;20122;-61
2021/07/29 04:48:06;;;;;;;;;;;;;;;25.12;64.27;101170.18;1925639;74;20137;-61
2021/07/29 04:50:34;;;;;;;;;;;;;;;25.28;63.31;101170.47;1925646;74;20122;-61
2021/07/29 04:53:02;;;;;;;;;;;;;;;25.35;62.11;101170.23;1925722;74;20161;-61
2021/07/29 04:55:29;;;;;;;;;;;;;;;25.49;61.61;101173.45;1925709;74;20106;-61
2021/07/29 04:57:58;;;;;;;;;;;;;;;25.58;60.95;101168.05;1925806;74;20103;-61
2021/07/29 05:00:29;;;;;;;;;;;;;;;25.80;61.04;101165.95;1925691;74;20152;-61
2021/07/29 05:02:57;;;;;;;;;;;;;;;26.05;60.61;101163.10;1925754;74;20111;-62
2021/07/29 05:05:24;;;;;;;;;;;;;;;26.40;60.81;101160.11;1925697;74;20148;-61
2021/07/29 05:07:52;;;;;;;;;;;;;;;26.64;59.25;101154.64;1925668;74;20161;-61
2021/07/29 05:10:21;;;;;;;;;;;;;;;27.03;59.85;101168.63;1925705;74;20102;-61
2021/07/29 05:12:48;;;;;;;;;;;;;;;27.34;59.10;101163.64;1928224;74;20152;-61
2021/07/29 05:15:16;;;;;;;;;;;;;;;27.70;58.32;101167.58;1935359;74;20122;-61
2021/07/29 05:17:44;;;;;;;;;;;;;;;28.03;58.94;101162.30;1935416;74;20118;-62
2021/07/29 05:20:12;;;;;;;;;;;;;;;28.35;58.21;101163.91;1935358;74;20145;-61
2021/07/29 05:22:40;;;;;;;;;;;;;;;28.47;55.45;101163.94;1935405;74;20097;-61
2021/07/29 05:25:08;;;;;;;;;;;;;;;28.66;55.53;101168.22;1935355;74;20145;-61
2021/07/29 05:27:36;;;;;;;;;;;;;;;28.96;56.01;101162.65;1935354;74;20098;-61
2021/07/29 05:30:04;;;;;;;;;;;;;;;29.22;54.65;101158.92;1935269;74;20121;-63
2021/07/29 09:49:46;;;;;;;;;;;;;;;37.61;24.43;100959.16;1935933;73;20104;-61
2021/07/29 09:52:14;;;;;;;;;;;;;;;37.47;24.70;100970.34;1928054;74;20121;-61
2021/07/29 09:54:44;;;;;;;;;;;;;;;37.36;24.23;100968.94;1928050;74;20299;-61
2021/07/29 09:57:13;;;;;;;;;;;;;;;37.15;24.21;100964.25;1928101;74;20155;-61
2021/07/29 09:59:41;;;;;;;;;;;;;;;37.00;24.39;100965.99;1928057;74;20147;-61
2021/07/29 10:02:09;;;;;;;;;;;;;;;37.02;24.41;100961.11;1928061;73;20142;-62
2021/07/29 10:04:44;;;;;;;;;;;;;;;37.14;24.53;100960.33;1928190;74;20147;-62
2021/07/29 10:07:31;;;;;;;;;;;;;;;37.03;24.43;100959.19;1928013;74;20143;-65
2021/07/29 10:10:01;;;;;;;;;;;;;;;36.83;24.92;100952.03;1928082;74;20104;-61
2021/07/29 10:12:30;;;;;;;;;;;;;;;36.86;25.47;100948.84;1928183;73;20108;-61
2021/07/29 10:14:59;;;;;;;;;;;;;;;37.01;25.66;100953.09;1928060;74;20138;-62
2021/07/29 10:17:37;;;;;;;;;;;;;;;36.93;25.83;100953.39;1928257;74;20401;-61
2021/07/29 10:20:16;;;;;;;;;;;;;;;37.05;25.98;100952.39;1928026;74;20191;-62
2021/07/29 10:22:45;;;;;;;;;;;;;;;37.05;24.79;100956.51;1928064;73;20156;-61
2021/07/29 10:25:13;;;;;;;;;;;;;;;36.78;23.75;100945.05;1928302;74;20167;-61
2021/07/29 10:27:42;;;;;;;;;;;;;;;36.57;23.39;100952.31;1928053;74;20104;-61
2021/07/29 10:30:23;;;;;;;;;;;;;;;36.50;23.16;100949.12;1927958;74;20116;-62
2021/07/29 10:32:51;;;;;;;;;;;;;;;36.34;22.38;100953.81;1928271;74;20158;-62
2021/07/29 10:35:29;;;;;;;;;;;;;;;36.04;21.88;100953.10;1928049;73;20116;-62
2021/07/29 10:37:59;;;;;;;;;;;;;;;35.98;22.75;100951.23;1928043;74;20096;-62
2021/07/29 10:40:36;;;;;;;;;;;;;;;35.98;22.84;100947.67;1927308;73;20142;-62
2021/07/29 10:43:21;;;;;;;;;;;;;;;35.87;21.63;100957.44;1928147;74;20120;-62
2021/07/29 10:45:50;;;;;;;;;;;;;;;35.68;21.77;100953.22;1928035;74;20100;-62
2021/07/29 10:48:36;;;;;;;;;;;;;;;35.52;21.37;100949.64;1927977;74;20146;-61
2021/07/29 10:51:11;;;;;;;;;;;;;;;35.41;21.12;100948.98;1928052;73;20171;-62
2021/07/29 10:53:41;;;;;;;;;;;;;;;35.27;21.17;100944.12;1927057;74;20560;-62
2021/07/29 10:56:12;;;;;;;;;;;;;;;35.04;20.83;100948.70;1927023;74;20120;-62
2021/07/29 10:58:43;;;;;;;;;;;;;;;34.96;21.51;100949.26;1928062;73;20112;-61
2021/07/29 11:01:11;;;;;;;;;;;;;;;34.97;21.24;100952.32;1928053;74;20355;-61
2021/07/29 11:03:50;;;;;;;;;;;;;;;34.68;21.13;100956.41;1928201;74;20120;-62
2021/07/29 11:06:10;;;;;;;;;;;;;;;34.43;21.72;100948.00;1924840;74;20143;-62
2021/07/29 11:08:38;;;;;;;;;;;;;;;34.28;22.02;100955.59;1927971;73;20432;-61
2021/07/29 11:11:06;;;;;;;;;;;;;;;34.17;22.47;100940.14;1928022;74;20142;-61
2021/07/29 11:13:35;;;;;;;;;;;;;;;34.19;22.75;100943.50;1928025;74;20155;-62
2021/07/29 11:16:04;;;;;;;;;;;;;;;34.12;22.93;100944.00;1927949;74;20100;-62
2021/07/29 11:18:31;;;;;;;;;;;;;;;34.06;23.24;100939.92;1928026;74;20469;-62
2021/07/29 11:21:01;;;;;;;;;;;;;;;34.04;23.43;100944.22;1928111;74;20112;-62
2021/07/29 11:23:38;;;;;;;;;;;;;;;34.06;23.67;100938.02;1927188;73;20116;-61
2021/07/29 11:26:06;;;;;;;;;;;;;;;33.96;23.08;100939.81;1928039;73;20147;-61
2021/07/29 11:28:35;;;;;;;;;;;;;;;33.84;23.43;100934.12;1927930;74;20156;-62
2021/07/29 11:31:03;;;;;;;;;;;;;;;33.74;23.58;100932.88;1927980;74;20116;-61
2021/07/29 11:33:31;;;;;;;;;;;;;;;33.54;23.30;100927.34;1928114;74;20112;-62
2021/07/29 11:36:12;;;;;;;;;;;;;;;33.42;23.57;100932.05;1928012;74;20143;-61
2021/07/29 11:38:37;;;;;;;;;;;;;;;33.32;24.10;100919.84;1927516;73;20142;-61
2021/07/29 11:41:04;;;;;;;;;;;;;;;33.30;24.09;100916.48;1928329;73;20143;-62
2021/07/29 11:43:33;;;;;;;;;;;;;;;33.18;24.13;100909.40;1928101;74;20178;-61
2021/07/29 11:46:08;;;;;;;;;;;;;;;33.12;23.97;100917.05;1928022;73;20116;-61
2021/07/29 11:48:36;;;;;;;;;;;;;;;33.08;24.28;100911.95;1928206;74;20417;-61
2021/07/29 11:51:15;;;;;;;;;;;;;;;33.10;24.70;100910.39;1928327;74;20116;-61
2021/07/29 11:53:43;;;;;;;;;;;;;;;33.16;24.71;100916.42;1929579;74;20112;-62
2021/07/29 11:56:12;;;;;;;;;;;;;;;33.17;24.69;100909.93;1930579;74;20112;-61
2021/07/29 11:58:41;;;;;;;;;;;;;;;33.18;24.08;100910.77;1930590;74;20112;-62
2021/07/29 12:01:10;;;;;;;;;;;;;;;33.09;23.96;100906.00;1930698;74;20143;-61
2021/07/29 12:03:39;;;;;;;;;;;;;;;33.02;24.42;100895.06;1929305;74;20142;-61
2021/07/29 12:06:08;;;;;;;;;;;;;;;33.04;24.64;100905.77;1930651;74;20100;-62
2021/07/29 12:08:36;;;;;;;;;;;;;;;33.05;24.57;100909.66;1930567;74;20378;-62
2021/07/29 12:11:04;;;;;;;;;;;;;;;33.07;24.73;100904.84;1930670;74;20251;-61
2021/07/29 12:13:32;;;;;;;;;;;;;;;33.12;24.90;100896.06;1930555;74;20116;-61
2021/07/29 12:16:00;;;;;;;;;;;;;;;33.15;24.82;100898.91;1930566;74;20100;-61
2021/07/29 12:18:28;;;;;;;;;;;;;;;33.20;25.10;100896.39;1930672;74;20116;-62
2021/07/29 12:20:56;;;;;;;;;;;;;;;33.20;25.28;100892.30;1930528;73;20100;-62
2021/07/29 12:23:25;;;;;;;;;;;;;;;33.19;25.26;100896.92;1930581;73;20163;-62
2021/07/29 12:25:53;;;;;;;;;;;;;;;33.08;24.36;100889.30;1930555;74;20112;-62
2021/07/29 12:28:39;;;;;;;;;;;;;;;32.96;24.70;100883.61;1930529;74;20564;-61
2021/07/29 12:31:17;;;;;;;;;;;;;;;32.85;24.79;100881.44;1930526;74;20112;-62
2021/07/29 12:33:50;;;;;;;;;;;;;;;32.89;25.15;100881.37;1930468;74;20108;-61
2021/07/29 12:36:18;;;;;;;;;;;;;;;32.96;25.32;100886.34;1929429;74;20112;-61
2021/07/29 12:38:45;;;;;;;;;;;;;;;32.98;25.52;100875.20;1930677;74;20150;-61
2021/07/29 12:41:14;;;;;;;;;;;;;;;33.00;25.56;100878.59;1930610;73;20375;-61
2021/07/29 12:43:42;;;;;;;;;;;;;;;32.96;25.77;100871.34;1928237;73;20370;-62
2021/07/29 12:46:10;;;;;;;;;;;;;;;32.94;25.64;100870.67;1930566;74;20187;-62
2021/07/29 12:48:57;;;;;;;;;;;;;;;32.91;24.81;100867.02;1930523;74;20116;-62
2021/07/29 12:51:39;;;;;;;;;;;;;;;32.84;25.34;100870.23;1930403;74;20428;-61
2021/07/29 12:54:08;;;;;;;;;;;;;;;32.76;25.56;100854.90;1927940;74;20104;-62
2021/07/29 12:56:36;;;;;;;;;;;;;;;32.76;25.63;100859.48;1928000;73;20422;-62
2021/07/29 12:59:04;;;;;;;;;;;;;;;32.73;25.84;100843.56;1927935;74;20197;-62
2021/07/29 13:01:33;;;;;;;;;;;;;;;32.75;26.02;100852.38;1927981;74;20116;-62
2021/07/29 13:04:00;;;;;;;;;;;;;;;32.77;26.08;100851.64;1927964;74;20112;-61
2021/07/29 13:06:28;;;;;;;;;;;;;;;32.77;26.22;100847.55;1927978;74;20112;-61
2021/07/29 13:11:45;;;;;;;;;;;;;;;32.65;25.82;100850.86;1882383;76;20159;-59
2021/07/29 13:14:12;;;;;;;;;;;;;;;32.59;26.04;100848.09;1882195;76;20129;-59
2021/07/29 13:16:40;;;;;;;;;;;;;;;32.58;26.02;100839.62;1882204;76;20121;-61
2021/07/29 13:19:08;;;;;;;;;;;;;;;32.51;25.96;100833.56;1882142;76;20199;-62
2021/07/29 13:21:36;;;;;;;;;;;;;;;32.48;26.10;100835.84;1882205;76;20226;-62
2021/07/29 13:24:04;;;;;;;;;;;;;;;32.47;26.36;100835.02;1882202;76;20147;-62
2021/07/29 13:26:32;;;;;;;;;;;;;;;32.50;26.54;100831.06;1882201;76;20121;-62
2021/07/29 13:28:59;;;;;;;;;;;;;;;32.49;26.61;100826.64;1882159;76;20141;-61
2021/07/29 13:31:27;;;;;;;;;;;;;;;32.47;26.71;100831.45;1882187;76;20179;-61
2021/07/29 13:33:55;;;;;;;;;;;;;;;32.44;26.59;100831.85;1882148;76;20215;-62
2021/07/29 13:36:23;;;;;;;;;;;;;;;32.39;26.63;100829.75;1882202;76;20151;-62
2021/07/29 13:38:52;;;;;;;;;;;;;;;32.38;26.82;100821.77;1882075;76;20152;-61
2021/07/29 13:41:20;;;;;;;;;;;;;;;32.37;26.93;100825.52;1882069;76;20112;-61
2021/07/29 13:43:48;;;;;;;;;;;;;;;32.31;26.83;100817.14;1882086;76;20171;-61
2021/07/29 13:46:16;;;;;;;;;;;;;;;32.26;26.53;100810.08;1881973;76;20109;-62
2021/07/29 13:48:44;;;;;;;;;;;;;;;32.19;26.69;100802.39;1882124;76;20144;-62
2021/07/29 13:51:11;;;;;;;;;;;;;;;32.16;26.56;100800.59;1882057;76;20120;-61
2021/07/29 13:53:39;;;;;;;;;;;;;;;32.12;26.81;100796.06;1882082;76;20105;-61
2021/07/29 13:56:07;;;;;;;;;;;;;;;32.11;26.95;100798.45;1882177;76;20117;-61
2021/07/29 13:58:35;;;;;;;;;;;;;;;32.08;26.84;100793.42;1882050;76;20117;-62
2021/07/29 14:01:03;;;;;;;;;;;;;;;32.04;27.04;100792.13;1882132;76;20218;-62
2021/07/29 14:03:31;;;;;;;;;;;;;;;32.02;27.27;100788.73;1882160;76;20151;-61
2021/07/29 14:05:59;;;;;;;;;;;;;;;32.00;27.27;100784.87;1882027;76;20121;-61
2021/07/29 14:08:27;;;;;;;;;;;;;;;31.98;27.14;100784.73;1882072;76;20116;-61
2021/07/29 14:10:55;;;;;;;;;;;;;;;31.89;26.83;100783.53;1881962;76;20117;-61
2021/07/29 14:13:23;;;;;;;;;;;;;;;31.83;27.05;100773.42;1881932;76;20109;-61
2021/07/29 14:15:52;;;;;;;;;;;;;;;31.78;27.06;100773.20;1882075;76;20121;-61
2021/07/29 14:18:20;;;;;;;;;;;;;;;31.74;27.05;100767.31;1882007;75;20428;-61
2021/07/29 14:23:32;;;;;;;;;;;;;;;31.71;27.33;100770.42;1882392;76;20183;-61
2021/07/29 14:26:00;;;;;;;;;;;;;;;31.66;27.48;100770.17;1882086;76;20124;-61
2021/07/29 14:28:29;;;;;;;;;;;;;;;31.64;27.59;100774.14;1882174;76;20132;-61
2021/07/29 14:30:57;;;;;;;;;;;;;;;31.60;27.69;100769.61;1882193;76;20155;-61
2021/07/29 14:33:24;;;;;;;;;;;;;;;31.57;27.76;100762.36;1882198;76;20160;-61
2021/07/29 14:35:53;;;;;;;;;;;;;;;31.51;27.94;100768.08;1882113;76;20109;-62
2021/07/29 14:38:21;;;;;;;;;;;;;;;31.46;28.09;100767.26;1882084;76;20148;-62
2021/07/29 14:40:52;;;;;;;;;;;;;;;31.40;27.95;100758.53;1882202;76;20152;-61
2021/07/29 16:07:27;;;;;;;14.70;4.08;;;;;;;29.52;33.31;100806.01;1918238;75;21024;-60
2021/07/29 16:09:48;;;;;;;11.20;4.28;;;;;;;29.44;35.03;100812.35;1917146;74;21027;-60
2021/07/29 16:12:17;;;;;;;10.68;4.25;;;;;;;29.36;36.09;100819.70;1918167;75;21043;-61
2021/07/29 16:14:46;;;;;;;7.28;3.70;;;;;;;29.29;36.90;100822.80;1918235;75;21000;-60
2021/07/29 16:17:15;;;;;;;12.55;4.22;;;;;;;29.21;37.48;100831.33;1923052;74;21514;-60
2021/07/29 16:19:44;;;;;;;9.30;4.00;;;;;;;29.16;38.09;100825.62;1925392;74;21451;-60
2021/07/29 16:22:13;;;;;;;10.93;3.95;;;;;;;29.10;38.38;100829.00;1925294;74;21125;-60
2021/07/29 16:24:41;;;;;;;15.32;4.55;;;;;;;29.04;38.57;100829.72;1925288;74;21125;-63
2021/07/29 16:27:11;;;;;;;11.12;3.98;;;;;;;28.95;38.77;100830.80;1924996;74;21114;-60
2021/07/29 16:29:43;;;;;;;15.35;3.90;;;;;;;28.87;39.03;100831.69;1924649;74;21427;-60
2021/07/29 16:32:12;;;;;;;12.90;4.75;;;;;;;28.78;39.20;100833.59;1924793;74;21491;-60
2021/07/29 16:34:40;;;;;;;17.30;6.15;;;;;;;28.71;39.37;100838.55;1924614;74;21532;-60
2021/07/29 16:37:09;;;;;;;13.22;5.58;;;;;;;28.63;39.62;100836.72;1924595;74;21117;-61
2021/07/29 16:39:40;;;;;;;13.60;5.33;;;;;;;28.56;40.01;100839.27;1924579;74;21103;-60
2021/07/29 16:42:09;;;;;;;16.82;5.92;;;;;;;28.49;40.29;100841.80;1924671;74;21051;-60
2021/07/29 16:44:37;;;;;;;16.67;6.30;;;;;;;28.41;40.66;100849.96;1924857;74;21105;-60
2021/07/29 16:47:06;;;;;;;11.53;5.45;;;;;;;28.33;40.87;100848.64;1924636;74;21121;-60
2021/07/29 16:49:35;;;;;;;13.00;6.08;;;;;;;28.24;41.07;100851.04;1924624;74;21514;-60
2021/07/29 16:52:04;;;;;;;13.78;5.62;;;;;;;28.14;41.60;100850.37;1924557;74;21117;-60
2021/07/29 16:54:33;;;;;;;22.70;5.62;;;;;;;28.02;41.79;100858.02;1924614;74;21133;-60
2021/07/29 16:57:02;;;;;;;15.25;5.42;;;;;;;27.90;41.93;100853.45;1924274;74;21063;-63
2021/07/29 16:59:33;;;;;;;13.83;5.15;;;;;;;27.79;42.11;100855.12;1924441;74;21442;-62
2021/07/29 17:02:01;;;;;;;18.07;4.97;;;;;;;27.67;42.46;100852.75;1924315;74;21095;-62
2021/07/29 17:04:30;;;;;;;14.65;4.92;;;;;;;27.57;42.72;100856.64;1924457;74;21031;-65
2021/07/29 17:06:59;;;;;;;14.98;5.70;;;;;;;27.47;43.40;100852.75;1904983;74;21108;-65
2021/07/29 17:09:28;;;;;;;13.95;5.47;;;;;;;27.37;43.92;100853.41;1891406;76;21137;-62
2021/07/29 17:11:57;;;;;;;15.45;5.60;;;;;;;27.25;44.25;100855.56;1910742;74;21063;-63
2021/07/29 17:14:26;;;;;;;13.72;6.83;;;;;;;27.15;44.71;100865.18;1924761;74;21117;-63
2021/07/29 17:16:57;;;;;;;12.60;6.60;;;;;;;27.07;45.22;100864.63;1905602;74;21188;-62
2021/07/29 17:19:26;;;;;;;19.62;5.25;;;;;;;27.00;45.73;100862.23;1891445;76;21078;-63
2021/07/29 17:21:55;;;;;;;14.43;5.40;;;;;;;26.94;45.96;100861.04;1910015;74;21054;-62
2021/07/29 17:24:24;;;;;;;17.23;6.35;;;;;;;26.87;46.24;100865.92;1924639;74;21470;-65
2021/07/29 17:26:53;;;;;;;22.37;7.05;;;;;;;26.81;46.51;100864.72;1906240;74;21049;-63
2021/07/29 17:29:21;;;;;;;15.90;6.42;;;;;;;26.76;46.77;100872.45;1891543;76;21107;-66
2021/07/29 17:31:50;;;;;;;16.75;7.05;;;;;;;26.71;46.82;100864.02;1891287;76;21224;-67
2021/07/29 17:34:19;;;;;;;14.23;5.95;;;;;;;26.67;47.05;100862.14;1891408;76;21137;-66
2021/07/29 17:36:48;;;;;;;18.20;6.97;;;;;;;26.62;47.08;100864.98;1905890;74;21109;-66
2021/07/29 17:39:25;;;;;;;22.45;7.75;;;;;;;26.57;47.23;100862.73;1924704;74;21052;-64
2021/07/29 17:41:51;;;;;;;27.22;8.20;;;;;;;26.53;47.45;100870.30;1918279;74;21139;-67
2021/07/29 17:44:20;;;;;;;16.52;6.87;;;;;;;26.49;47.78;100866.23;1891457;76;21604;-66
2021/07/29 17:46:49;;;;;;;23.90;7.90;;;;;;;26.44;47.79;100867.73;1898094;74;21402;-72
2021/07/29 17:49:17;;;;;;;18.75;8.35;;;;;;;26.39;48.21;100868.20;1924635;74;21047;-62
2021/07/29 17:51:46;;;;;;;19.37;7.70;;;;;;;26.35;48.48;100873.58;1917911;74;21154;-61
2021/07/29 17:54:15;;;;;;;21.80;9.33;;;;;;;26.31;48.86;100876.26;1891493;75;21584;-62
2021/07/29 17:56:44;;;;;;;26.45;10.88;;;;;;;26.27;49.20;100874.89;1906871;74;21044;-61
2021/07/29 17:59:13;;;;;;;22.10;10.50;;;;;;;26.24;49.32;100873.84;1924570;74;21474;-62
2021/07/29 18:01:43;;;;;;;17.48;6.75;;;;;;;26.19;48.87;100869.78;1924584;74;21137;-62
2021/07/29 18:04:11;;;;;;;18.95;6.80;;;;;;;26.15;48.75;100875.16;1892646;74;21028;-63
2021/07/29 18:06:40;;;;;;;20.15;7.85;;;;;;;26.11;48.88;100878.31;1899535;74;21117;-63
2021/07/29 18:09:09;;;;;;;13.93;6.97;;;;;;;26.06;49.14;100876.11;1924408;74;21060;-67
2021/07/29 18:11:37;;;;;;;14.55;6.67;;;;;;;25.99;49.84;100877.23;1915731;74;21009;-65
2021/07/29 18:14:06;;;;;;;14.83;6.90;;;;;;;25.88;51.29;100879.31;1891582;75;21053;-62
2021/07/29 18:16:35;;;;;;;21.17;6.65;;;;;;;25.72;51.68;100876.80;1891558;74;21148;-65